sensor_id;sensor_type;location;lat;lon;timestamp;pressure;altitude;pressure_sealevel;temperature;humidity
53916;BME280;39827;49.652;18.770;2023-02-13T00:01:16;98410.09;;;2.74;100.00
53916;BME280;39827;49.652;18.770;2023-02-13T00:03:41;98394.91;;;2.70;100.00
53916;BME280;39827;49.652;18.770;2023-02-13T00:06:06;98406.22;;;2.87;100.00
53916;BME280;39827;49.652;18.770;2023-02-13T00:08:32;98402.06;;;2.68;100.00
53916;BME280;39827;49.652;18.770;2023-02-13T00:10:57;98406.56;;;2.41;100.00
53916;BME280;39827;49.652;18.770;2023-02-13T00:13:23;98398.63;;;2.24;100.00
53916;BME280;39827;49.652;18.770;2023-02-13T00:15:58;98393.66;;;2.47;100.00
53916;BME280;39827;49.652;18.770;2023-02-13T00:18:24;98389.00;;;2.76;100.00
53916;BME280;39827;49.652;18.770;2023-02-13T00:21:00;98381.16;;;2.76;100.00
53916;BME280;39827;49.652;18.770;2023-02-13T00:23:28;98380.44;;;2.49;100.00
53916;BME280;39827;49.652;18.770;2023-02-13T00:25:54;98393.13;;;2.36;100.00
53916;BME280;39827;49.652;18.770;2023-02-13T00:28:19;98384.06;;;2.56;100.00
53916;BME280;39827;49.652;18.770;2023-02-13T00:30:45;98391.34;;;2.88;100.00
53916;BME280;39827;49.652;18.770;2023-02-13T00:33:10;98389.34;;;2.73;100.00
53916;BME280;39827;49.652;18.770;2023-02-13T00:35:35;98381.88;;;2.86;100.00
53916;BME280;39827;49.652;18.770;2023-02-13T00:38:01;98381.72;;;3.05;100.00
53916;BME280;39827;49.652;18.770;2023-02-13T00:40:26;98389.72;;;3.03;100.00
53916;BME280;39827;49.652;18.770;2023-02-13T00:42:51;98386.47;;;3.01;100.00
53916;BME280;39827;49.652;18.770;2023-02-13T00:45:17;98390.69;;;2.94;100.00
53916;BME280;39827;49.652;18.770;2023-02-13T00:47:42;98390.53;;;2.95;100.00
53916;BME280;39827;49.652;18.770;2023-02-13T00:50:08;98388.44;;;2.99;100.00
53916;BME280;39827;49.652;18.770;2023-02-13T00:52:33;98395.47;;;2.98;100.00
53916;BME280;39827;49.652;18.770;2023-02-13T00:54:59;98383.19;;;2.91;100.00
53916;BME280;39827;49.652;18.770;2023-02-13T00:57:24;98377.25;;;2.80;100.00
53916;BME280;39827;49.652;18.770;2023-02-13T00:59:49;98370.69;;;2.68;100.00
53916;BME280;39827;49.652;18.770;2023-02-13T01:02:15;98376.94;;;2.75;100.00
53916;BME280;39827;49.652;18.770;2023-02-13T01:04:40;98376.44;;;2.71;100.00
53916;BME280;39827;49.652;18.770;2023-02-13T01:07:05;98369.69;;;2.60;100.00
53916;BME280;39827;49.652;18.770;2023-02-13T01:09:31;98373.28;;;2.68;100.00
53916;BME280;39827;49.652;18.770;2023-02-13T01:11:56;98371.59;;;3.02;100.00
53916;BME280;39827;49.652;18.770;2023-02-13T01:14:22;98368.47;;;3.06;100.00
53916;BME280;39827;49.652;18.770;2023-02-13T01:16:47;98364.19;;;2.89;100.00
53916;BME280;39827;49.652;18.770;2023-02-13T01:19:12;98368.91;;;2.77;100.00
53916;BME280;39827;49.652;18.770;2023-02-13T01:21:38;98370.22;;;2.72;100.00
53916;BME280;39827;49.652;18.770;2023-02-13T01:24:04;98370.25;;;2.81;100.00
53916;BME280;39827;49.652;18.770;2023-02-13T01:26:30;98376.66;;;2.95;100.00
53916;BME280;39827;49.652;18.770;2023-02-13T01:28:55;98374.03;;;2.95;100.00
53916;BME280;39827;49.652;18.770;2023-02-13T01:31:22;98366.47;;;2.75;100.00
53916;BME280;39827;49.652;18.770;2023-02-13T01:33:48;98358.16;;;2.88;100.00
53916;BME280;39827;49.652;18.770;2023-02-13T01:36:13;98363.88;;;2.83;100.00
53916;BME280;39827;49.652;18.770;2023-02-13T01:38:39;98358.50;;;3.02;100.00
53916;BME280;39827;49.652;18.770;2023-02-13T01:41:05;98356.38;;;2.97;100.00
53916;BME280;39827;49.652;18.770;2023-02-13T01:43:53;98371.94;;;3.15;100.00
53916;BME280;39827;49.652;18.770;2023-02-13T01:48:53;98361.91;;;2.85;100.00
53916;BME280;39827;49.652;18.770;2023-02-13T01:51:25;98353.59;;;2.98;100.00
53916;BME280;39827;49.652;18.770;2023-02-13T01:54:02;98352.25;;;2.78;100.00
53916;BME280;39827;49.652;18.770;2023-02-13T01:56:47;98346.44;;;2.49;100.00
53916;BME280;39827;49.652;18.770;2023-02-13T01:59:19;98345.81;;;2.55;100.00
53916;BME280;39827;49.652;18.770;2023-02-13T02:01:45;98350.28;;;2.71;100.00
53916;BME280;39827;49.652;18.770;2023-02-13T02:04:16;98345.72;;;2.82;100.00
53916;BME280;39827;49.652;18.770;2023-02-13T02:06:48;98335.38;;;2.72;100.00
53916;BME280;39827;49.652;18.770;2023-02-13T02:09:18;98327.56;;;2.80;100.00
53916;BME280;39827;49.652;18.770;2023-02-13T02:14:26;98343.63;;;3.35;100.00
53916;BME280;39827;49.652;18.770;2023-02-13T02:16:52;98346.25;;;3.35;100.00
53916;BME280;39827;49.652;18.770;2023-02-13T02:19:27;98346.25;;;3.19;100.00
53916;BME280;39827;49.652;18.770;2023-02-13T02:29:43;98335.59;;;3.20;100.00
53916;BME280;39827;49.652;18.770;2023-02-13T02:35:18;98331.53;;;3.18;100.00
53916;BME280;39827;49.652;18.770;2023-02-13T02:38:20;98327.44;;;3.23;100.00
53916;BME280;39827;49.652;18.770;2023-02-13T02:41:08;98323.47;;;3.52;100.00
53916;BME280;39827;49.652;18.770;2023-02-13T02:43:47;98312.38;;;3.34;99.80
53916;BME280;39827;49.652;18.770;2023-02-13T02:46:30;98315.16;;;3.16;100.00
53916;BME280;39827;49.652;18.770;2023-02-13T02:49:12;98321.84;;;3.35;100.00
53916;BME280;39827;49.652;18.770;2023-02-13T02:54:39;98324.81;;;3.15;100.00
53916;BME280;39827;49.652;18.770;2023-02-13T02:57:29;98318.59;;;3.24;100.00
53916;BME280;39827;49.652;18.770;2023-02-13T03:00:20;98320.53;;;3.14;100.00
53916;BME280;39827;49.652;18.770;2023-02-13T03:03:13;98328.59;;;3.21;100.00
53916;BME280;39827;49.652;18.770;2023-02-13T03:06:01;98325.44;;;3.00;100.00
53916;BME280;39827;49.652;18.770;2023-02-13T03:08:40;98329.53;;;3.11;100.00
53916;BME280;39827;49.652;18.770;2023-02-13T03:11:24;98327.59;;;3.05;100.00
53916;BME280;39827;49.652;18.770;2023-02-13T03:14:10;98323.81;;;3.24;100.00
53916;BME280;39827;49.652;18.770;2023-02-13T03:16:38;98318.13;;;3.12;100.00
53916;BME280;39827;49.652;18.770;2023-02-13T03:19:50;98325.94;;;3.29;100.00
53916;BME280;39827;49.652;18.770;2023-02-13T03:25:17;98318.09;;;3.37;100.00
53916;BME280;39827;49.652;18.770;2023-02-13T03:28:09;98321.69;;;3.45;100.00
53916;BME280;39827;49.652;18.770;2023-02-13T03:31:12;98331.69;;;3.24;100.00
53916;BME280;39827;49.652;18.770;2023-02-13T03:39:43;98327.59;;;3.38;100.00
53916;BME280;39827;49.652;18.770;2023-02-13T03:42:40;98331.00;;;3.56;99.86
53916;BME280;39827;49.652;18.770;2023-02-13T03:45:12;98332.97;;;3.54;99.99
53916;BME280;39827;49.652;18.770;2023-02-13T03:48:00;98336.75;;;3.34;100.00
53916;BME280;39827;49.652;18.770;2023-02-13T03:50:36;98331.53;;;3.18;100.00
53916;BME280;39827;49.652;18.770;2023-02-13T03:53:07;98338.06;;;3.13;100.00
53916;BME280;39827;49.652;18.770;2023-02-13T03:55:37;98348.88;;;3.35;100.00
53916;BME280;39827;49.652;18.770;2023-02-13T03:58:34;98348.38;;;3.32;100.00
53916;BME280;39827;49.652;18.770;2023-02-13T04:01:21;98351.81;;;3.32;100.00
53916;BME280;39827;49.652;18.770;2023-02-13T04:03:50;98349.50;;;3.46;100.00
53916;BME280;39827;49.652;18.770;2023-02-13T04:06:26;98344.94;;;3.56;100.00
53916;BME280;39827;49.652;18.770;2023-02-13T04:09:08;98332.31;;;3.43;100.00
53916;BME280;39827;49.652;18.770;2023-02-13T04:11:38;98345.41;;;3.68;100.00
53916;BME280;39827;49.652;18.770;2023-02-13T04:14:22;98332.28;;;3.68;100.00
53916;BME280;39827;49.652;18.770;2023-02-13T04:16:52;98345.09;;;3.55;100.00
53916;BME280;39827;49.652;18.770;2023-02-13T04:19:23;98342.00;;;3.43;100.00
53916;BME280;39827;49.652;18.770;2023-02-13T04:21:55;98335.41;;;3.55;100.00
53916;BME280;39827;49.652;18.770;2023-02-13T04:24:22;98339.03;;;3.46;100.00
53916;BME280;39827;49.652;18.770;2023-02-13T04:26:47;98331.84;;;3.31;100.00
53916;BME280;39827;49.652;18.770;2023-02-13T04:29:12;98339.38;;;3.26;100.00
53916;BME280;39827;49.652;18.770;2023-02-13T04:31:38;98345.41;;;3.26;100.00
53916;BME280;39827;49.652;18.770;2023-02-13T04:34:04;98348.38;;;3.32;100.00
53916;BME280;39827;49.652;18.770;2023-02-13T04:36:30;98334.78;;;3.36;100.00
53916;BME280;39827;49.652;18.770;2023-02-13T04:38:55;98343.28;;;3.47;100.00
53916;BME280;39827;49.652;18.770;2023-02-13T04:41:20;98344.41;;;3.52;100.00
53916;BME280;39827;49.652;18.770;2023-02-13T04:43:46;98343.94;;;3.24;100.00
53916;BME280;39827;49.652;18.770;2023-02-13T04:46:11;98351.78;;;3.07;100.00
53916;BME280;39827;49.652;18.770;2023-02-13T04:48:37;98352.44;;;2.93;100.00
53916;BME280;39827;49.652;18.770;2023-02-13T04:51:02;98356.34;;;2.80;100.00
53916;BME280;39827;49.652;18.770;2023-02-13T04:53:28;98347.50;;;2.90;100.00
53916;BME280;39827;49.652;18.770;2023-02-13T04:55:53;98350.47;;;3.11;100.00
53916;BME280;39827;49.652;18.770;2023-02-13T04:58:19;98354.88;;;2.94;100.00
53916;BME280;39827;49.652;18.770;2023-02-13T05:00:44;98348.53;;;3.05;100.00
53916;BME280;39827;49.652;18.770;2023-02-13T05:03:11;98361.59;;;3.05;100.00
53916;BME280;39827;49.652;18.770;2023-02-13T05:05:37;98358.84;;;3.07;100.00
53916;BME280;39827;49.652;18.770;2023-02-13T05:08:05;98353.59;;;3.07;100.00
53916;BME280;39827;49.652;18.770;2023-02-13T05:10:30;98342.00;;;3.09;100.00
53916;BME280;39827;49.652;18.770;2023-02-13T05:12:56;98350.31;;;2.88;100.00
53916;BME280;39827;49.652;18.770;2023-02-13T05:15:21;98341.47;;;2.89;100.00
53916;BME280;39827;49.652;18.770;2023-02-13T05:17:48;98345.59;;;3.00;100.00
53916;BME280;39827;49.652;18.770;2023-02-13T05:20:14;98347.53;;;3.06;100.00
53916;BME280;39827;49.652;18.770;2023-02-13T05:22:47;98347.19;;;2.93;100.00
53916;BME280;39827;49.652;18.770;2023-02-13T05:25:32;98336.88;;;2.83;100.00
53916;BME280;39827;49.652;18.770;2023-02-13T05:27:58;98343.25;;;2.80;100.00
53916;BME280;39827;49.652;18.770;2023-02-13T05:30:23;98333.28;;;2.67;100.00
53916;BME280;39827;49.652;18.770;2023-02-13T05:32:49;98341.16;;;2.84;100.00
53916;BME280;39827;49.652;18.770;2023-02-13T05:35:20;98328.88;;;2.84;100.00
53916;BME280;39827;49.652;18.770;2023-02-13T05:37:46;98342.78;;;2.93;100.00
53916;BME280;39827;49.652;18.770;2023-02-13T05:40:12;98340.63;;;2.80;100.00
53916;BME280;39827;49.652;18.770;2023-02-13T05:42:39;98343.09;;;2.90;100.00
53916;BME280;39827;49.652;18.770;2023-02-13T05:45:05;98344.59;;;2.93;100.00
53916;BME280;39827;49.652;18.770;2023-02-13T05:47:30;98340.63;;;2.80;100.00
53916;BME280;39827;49.652;18.770;2023-02-13T05:49:56;98338.00;;;2.80;100.00
53916;BME280;39827;49.652;18.770;2023-02-13T05:52:21;98345.56;;;2.92;100.00
53916;BME280;39827;49.652;18.770;2023-02-13T05:54:47;98355.38;;;2.98;100.00
53916;BME280;39827;49.652;18.770;2023-02-13T05:57:12;98343.59;;;2.77;100.00
53916;BME280;39827;49.652;18.770;2023-02-13T05:59:37;98334.63;;;2.88;100.00
53916;BME280;39827;49.652;18.770;2023-02-13T06:02:03;98347.22;;;3.01;100.00
53916;BME280;39827;49.652;18.770;2023-02-13T06:04:28;98342.44;;;2.80;100.00
53916;BME280;39827;49.652;18.770;2023-02-13T06:06:54;98334.59;;;2.71;100.00
53916;BME280;39827;49.652;18.770;2023-02-13T06:09:19;98348.81;;;2.69;100.00
53916;BME280;39827;49.652;18.770;2023-02-13T06:11:46;98344.88;;;2.81;100.00
53916;BME280;39827;49.652;18.770;2023-02-13T06:14:11;98349.16;;;2.91;100.00
53916;BME280;39827;49.652;18.770;2023-02-13T06:16:39;98346.56;;;2.99;100.00
53916;BME280;39827;49.652;18.770;2023-02-13T06:19:04;98333.13;;;2.94;100.00
53916;BME280;39827;49.652;18.770;2023-02-13T06:21:30;98350.66;;;3.02;100.00
53916;BME280;39827;49.652;18.770;2023-02-13T06:23:57;98341.81;;;2.94;100.00
53916;BME280;39827;49.652;18.770;2023-02-13T06:26:22;98349.84;;;3.09;100.00
53916;BME280;39827;49.652;18.770;2023-02-13T06:28:48;98336.91;;;3.16;100.00
53916;BME280;39827;49.652;18.770;2023-02-13T06:31:13;98358.34;;;3.20;100.00
53916;BME280;39827;49.652;18.770;2023-02-13T06:33:39;98357.72;;;3.34;100.00
53916;BME280;39827;49.652;18.770;2023-02-13T06:36:04;98344.63;;;3.34;100.00
53916;BME280;39827;49.652;18.770;2023-02-13T06:38:30;98346.91;;;3.04;100.00
53916;BME280;39827;49.652;18.770;2023-02-13T06:40:59;98359.19;;;3.29;100.00
53916;BME280;39827;49.652;18.770;2023-02-13T06:43:25;98363.91;;;3.25;100.00
53916;BME280;39827;49.652;18.770;2023-02-13T06:45:50;98356.56;;;3.29;100.00
53916;BME280;39827;49.652;18.770;2023-02-13T06:48:18;98352.78;;;3.31;100.00
53916;BME280;39827;49.652;18.770;2023-02-13T06:50:43;98349.84;;;3.34;100.00
53916;BME280;39827;49.652;18.770;2023-02-13T06:53:09;98345.41;;;3.26;100.00
53916;BME280;39827;49.652;18.770;2023-02-13T06:55:35;98341.81;;;3.36;100.00
53916;BME280;39827;49.652;18.770;2023-02-13T06:58:01;98348.34;;;3.40;100.00
53916;BME280;39827;49.652;18.770;2023-02-13T07:00:26;98343.78;;;3.34;100.00
53916;BME280;39827;49.652;18.770;2023-02-13T07:02:52;98338.69;;;3.16;100.00
53916;BME280;39827;49.652;18.770;2023-02-13T07:05:17;98334.94;;;3.26;100.00
53916;BME280;39827;49.652;18.770;2023-02-13T07:07:43;98336.75;;;3.43;100.00
53916;BME280;39827;49.652;18.770;2023-02-13T07:10:11;98330.66;;;3.67;100.00
53916;BME280;39827;49.652;18.770;2023-02-13T07:12:37;98344.41;;;3.61;100.00
53916;BME280;39827;49.652;18.770;2023-02-13T07:15:03;98323.97;;;3.64;100.00
53916;BME280;39827;49.652;18.770;2023-02-13T07:17:29;98335.72;;;3.69;100.00
53916;BME280;39827;49.652;18.770;2023-02-13T07:19:55;98335.69;;;3.85;100.00
53916;BME280;39827;49.652;18.770;2023-02-13T07:22:20;98341.03;;;4.09;100.00
53916;BME280;39827;49.652;18.770;2023-02-13T07:24:46;98339.72;;;4.04;100.00
53916;BME280;39827;49.652;18.770;2023-02-13T07:27:11;98335.53;;;4.35;100.00
53916;BME280;39827;49.652;18.770;2023-02-13T07:29:37;98344.59;;;4.56;100.00
53916;BME280;39827;49.652;18.770;2023-02-13T07:32:02;98346.84;;;4.67;100.00
53916;BME280;39827;49.652;18.770;2023-02-13T07:34:27;98343.28;;;4.83;99.72
53916;BME280;39827;49.652;18.770;2023-02-13T07:36:53;98353.75;;;4.60;100.00
53916;BME280;39827;49.652;18.770;2023-02-13T07:39:18;98353.94;;;4.59;100.00
53916;BME280;39827;49.652;18.770;2023-02-13T07:41:44;98343.50;;;4.50;100.00
53916;BME280;39827;49.652;18.770;2023-02-13T07:44:10;98356.16;;;4.70;100.00
53916;BME280;39827;49.652;18.770;2023-02-13T07:46:35;98354.56;;;4.61;100.00
53916;BME280;39827;49.652;18.770;2023-02-13T07:49:01;98359.94;;;4.67;100.00
53916;BME280;39827;49.652;18.770;2023-02-13T07:51:26;98353.31;;;4.80;100.00
53916;BME280;39827;49.652;18.770;2023-02-13T07:53:53;98359.16;;;4.90;100.00
53916;BME280;39827;49.652;18.770;2023-02-13T07:56:19;98364.78;;;4.87;100.00
53916;BME280;39827;49.652;18.770;2023-02-13T07:58:45;98367.31;;;4.72;100.00
53916;BME280;39827;49.652;18.770;2023-02-13T08:01:12;98363.22;;;4.93;100.00
53916;BME280;39827;49.652;18.770;2023-02-13T08:03:38;98356.25;;;4.85;100.00
53916;BME280;39827;49.652;18.770;2023-02-13T08:06:05;98355.97;;;5.03;100.00
53916;BME280;39827;49.652;18.770;2023-02-13T08:08:31;98347.72;;;5.30;99.01
53916;BME280;39827;49.652;18.770;2023-02-13T08:11:02;98348.50;;;5.54;98.45
53916;BME280;39827;49.652;18.770;2023-02-13T08:13:48;98351.13;;;5.54;98.37
53916;BME280;39827;49.652;18.770;2023-02-13T08:16:13;98339.97;;;5.52;98.16
53916;BME280;39827;49.652;18.770;2023-02-13T08:18:39;98345.09;;;5.68;97.30
53916;BME280;39827;49.652;18.770;2023-02-13T08:21:04;98344.47;;;5.96;94.84
53916;BME280;39827;49.652;18.770;2023-02-13T08:23:30;98340.75;;;5.76;95.67
53916;BME280;39827;49.652;18.770;2023-02-13T08:25:58;98339.31;;;5.88;96.20
53916;BME280;39827;49.652;18.770;2023-02-13T08:28:24;98352.38;;;5.96;96.31
53916;BME280;39827;49.652;18.770;2023-02-13T08:30:50;98354.47;;;6.16;95.24
53916;BME280;39827;49.652;18.770;2023-02-13T08:33:15;98359.63;;;6.24;94.30
53916;BME280;39827;49.652;18.770;2023-02-13T08:35:40;98355.88;;;6.49;93.16
53916;BME280;39827;49.652;18.770;2023-02-13T08:38:06;98344.34;;;6.50;92.30
53916;BME280;39827;49.652;18.770;2023-02-13T08:40:31;98339.13;;;6.35;91.29
53916;BME280;39827;49.652;18.770;2023-02-13T08:43:00;98342.66;;;6.79;90.73
53916;BME280;39827;49.652;18.770;2023-02-13T08:45:26;98344.09;;;6.45;90.94
53916;BME280;39827;49.652;18.770;2023-02-13T08:47:55;98351.28;;;6.36;92.28
53916;BME280;39827;49.652;18.770;2023-02-13T08:50:20;98347.66;;;6.22;93.26
53916;BME280;39827;49.652;18.770;2023-02-13T08:52:46;98350.03;;;6.17;93.66
53916;BME280;39827;49.652;18.770;2023-02-13T08:55:11;98348.19;;;6.02;94.12
53916;BME280;39827;49.652;18.770;2023-02-13T08:57:37;98346.13;;;6.12;93.80
53916;BME280;39827;49.652;18.770;2023-02-13T09:00:03;98345.78;;;6.31;94.09
53916;BME280;39827;49.652;18.770;2023-02-13T09:02:28;98346.81;;;6.88;90.78
53916;BME280;39827;49.652;18.770;2023-02-13T09:04:54;98343.88;;;7.20;89.53
53916;BME280;39827;49.652;18.770;2023-02-13T09:07:19;98351.44;;;7.30;88.50
53916;BME280;39827;49.652;18.770;2023-02-13T09:09:44;98350.50;;;7.38;87.58
53916;BME280;39827;49.652;18.770;2023-02-13T09:12:10;98356.59;;;7.38;88.88
53916;BME280;39827;49.652;18.770;2023-02-13T09:14:35;98348.69;;;7.38;86.54
53916;BME280;39827;49.652;18.770;2023-02-13T09:17:03;98348.16;;;7.78;85.60
53916;BME280;39827;49.652;18.770;2023-02-13T09:19:28;98357.94;;;7.85;84.59
53916;BME280;39827;49.652;18.770;2023-02-13T09:21:54;98364.91;;;7.64;84.13
53916;BME280;39827;49.652;18.770;2023-02-13T09:24:19;98359.97;;;7.32;85.29
53916;BME280;39827;49.652;18.770;2023-02-13T09:26:44;98353.16;;;7.16;85.08
53916;BME280;39827;49.652;18.770;2023-02-13T09:29:10;98360.19;;;7.88;83.82
53916;BME280;39827;49.652;18.770;2023-02-13T09:31:35;98361.06;;;8.37;80.24
53916;BME280;39827;49.652;18.770;2023-02-13T09:34:00;98361.44;;;8.69;79.56
53916;BME280;39827;49.652;18.770;2023-02-13T09:36:26;98367.06;;;8.59;78.60
53916;BME280;39827;49.652;18.770;2023-02-13T09:38:53;98360.47;;;8.97;77.62
53916;BME280;39827;49.652;18.770;2023-02-13T09:43:55;98357.44;;;9.75;73.03
53916;BME280;39827;49.652;18.770;2023-02-13T09:46:37;98351.97;;;9.76;71.23
53916;BME280;39827;49.652;18.770;2023-02-13T09:49:12;98363.97;;;9.79;68.88
53916;BME280;39827;49.652;18.770;2023-02-13T09:51:44;98362.34;;;9.71;67.93
53916;BME280;39827;49.652;18.770;2023-02-13T09:54:15;98370.28;;;9.51;67.46
53916;BME280;39827;49.652;18.770;2023-02-13T09:56:55;98364.81;;;9.52;66.70
53916;BME280;39827;49.652;18.770;2023-02-13T10:10:43;98350.19;;;12.66;52.31
53916;BME280;39827;49.652;18.770;2023-02-13T10:13:26;98349.00;;;12.31;53.46
53916;BME280;39827;49.652;18.770;2023-02-13T10:16:08;98354.28;;;13.65;50.58
53916;BME280;39827;49.652;18.770;2023-02-13T10:21:41;98334.81;;;12.37;52.65
53916;BME280;39827;49.652;18.770;2023-02-13T10:24:20;98338.84;;;11.83;54.58
53916;BME280;39827;49.652;18.770;2023-02-13T10:26:50;98332.56;;;11.78;54.64
53916;BME280;39827;49.652;18.770;2023-02-13T10:29:21;98321.34;;;10.99;56.88
53916;BME280;39827;49.652;18.770;2023-02-13T10:32:14;98335.69;;;10.52;58.46
53916;BME280;39827;49.652;18.770;2023-02-13T10:34:43;98326.09;;;9.92;60.85
53916;BME280;39827;49.652;18.770;2023-02-13T10:37:15;98341.22;;;9.37;63.04
53916;BME280;39827;49.652;18.770;2023-02-13T10:39:44;98329.59;;;9.11;63.62
53916;BME280;39827;49.652;18.770;2023-02-13T10:55:53;98310.25;;;8.84;66.18
53916;BME280;39827;49.652;18.770;2023-02-13T11:01:50;98304.31;;;8.62;67.18
53916;BME280;39827;49.652;18.770;2023-02-13T11:04:18;98306.03;;;8.27;68.67
53916;BME280;39827;49.652;18.770;2023-02-13T11:07:03;98302.31;;;8.15;69.54
53916;BME280;39827;49.652;18.770;2023-02-13T11:09:35;98307.41;;;7.81;72.22
53916;BME280;39827;49.652;18.770;2023-02-13T11:12:31;98299.69;;;7.79;72.76
53916;BME280;39827;49.652;18.770;2023-02-13T11:15:03;98287.44;;;7.65;73.85
53916;BME280;39827;49.652;18.770;2023-02-13T11:17:33;98290.66;;;7.32;76.07
53916;BME280;39827;49.652;18.770;2023-02-13T11:20:06;98288.72;;;7.47;76.04
53916;BME280;39827;49.652;18.770;2023-02-13T11:22:37;98292.44;;;7.53;75.60
53916;BME280;39827;49.652;18.770;2023-02-13T11:25:24;98287.72;;;7.48;76.18
53916;BME280;39827;49.652;18.770;2023-02-13T11:28:14;98287.69;;;7.41;77.06
53916;BME280;39827;49.652;18.770;2023-02-13T11:30:40;98281.66;;;6.97;78.38
53916;BME280;39827;49.652;18.770;2023-02-13T11:33:23;98287.59;;;7.06;79.96
53916;BME280;39827;49.652;18.770;2023-02-13T11:36:03;98281.63;;;6.90;81.13
53916;BME280;39827;49.652;18.770;2023-02-13T11:38:29;98292.44;;;6.81;82.43
53916;BME280;39827;49.652;18.770;2023-02-13T11:41:16;98289.50;;;6.69;83.87
53916;BME280;39827;49.652;18.770;2023-02-13T11:43:53;98287.25;;;6.65;84.83
53916;BME280;39827;49.652;18.770;2023-02-13T11:46:29;98276.66;;;6.59;87.08
53916;BME280;39827;49.652;18.770;2023-02-13T11:49:03;98277.41;;;6.74;87.06
53916;BME280;39827;49.652;18.770;2023-02-13T11:54:32;98284.81;;;6.86;87.67
53916;BME280;39827;49.652;18.770;2023-02-13T11:59:42;98278.34;;;6.67;88.11
53916;BME280;39827;49.652;18.770;2023-02-13T12:02:15;98277.72;;;6.64;88.26
53916;BME280;39827;49.652;18.770;2023-02-13T12:04:41;98277.91;;;6.26;88.92
53916;BME280;39827;49.652;18.770;2023-02-13T12:09:48;98272.34;;;6.73;88.47
53916;BME280;39827;49.652;18.770;2023-02-13T12:12:18;98251.84;;;6.68;88.61
53916;BME280;39827;49.652;18.770;2023-02-13T12:14:47;98258.47;;;6.86;88.13
53916;BME280;39827;49.652;18.770;2023-02-13T12:17:21;98255.53;;;6.96;87.71
53916;BME280;39827;49.652;18.770;2023-02-13T12:19:48;98247.22;;;7.21;86.89
53916;BME280;39827;49.652;18.770;2023-02-13T12:22:28;98249.16;;;7.76;84.68
53916;BME280;39827;49.652;18.770;2023-02-13T12:25:22;98247.91;;;7.72;83.91
53916;BME280;39827;49.652;18.770;2023-02-13T12:28:22;98229.53;;;7.50;85.48
53916;BME280;39827;49.652;18.770;2023-02-13T12:31:07;98235.63;;;7.50;85.01
53916;BME280;39827;49.652;18.770;2023-02-13T12:39:42;98227.75;;;7.22;85.04
53916;BME280;39827;49.652;18.770;2023-02-13T12:45:19;98222.66;;;6.91;86.29
53916;BME280;39827;49.652;18.770;2023-02-13T12:50:56;98217.19;;;7.15;85.17
53916;BME280;39827;49.652;18.770;2023-02-13T13:04:35;98235.38;;;6.59;88.62
53916;BME280;39827;49.652;18.770;2023-02-13T13:09:54;98235.59;;;6.43;90.15
53916;BME280;39827;49.652;18.770;2023-02-13T13:12:29;98243.31;;;6.44;90.41
53916;BME280;39827;49.652;18.770;2023-02-13T13:18:34;98244.91;;;6.23;94.20
53916;BME280;39827;49.652;18.770;2023-02-13T13:21:01;98247.00;;;6.13;94.39
53916;BME280;39827;49.652;18.770;2023-02-13T13:26:04;98254.28;;;5.81;96.65
53916;BME280;39827;49.652;18.770;2023-02-13T13:28:38;98248.75;;;5.91;97.46
53916;BME280;39827;49.652;18.770;2023-02-13T13:31:05;98246.28;;;5.89;98.16
53916;BME280;39827;49.652;18.770;2023-02-13T13:33:32;98248.38;;;5.94;98.15
53916;BME280;39827;49.652;18.770;2023-02-13T13:38:38;98240.28;;;5.95;97.47
53916;BME280;39827;49.652;18.770;2023-02-13T13:46:48;98235.59;;;5.91;97.73
53916;BME280;39827;49.652;18.770;2023-02-13T13:54:48;98240.78;;;5.84;97.42
53916;BME280;39827;49.652;18.770;2023-02-13T14:07:41;98249.84;;;5.51;99.55
53916;BME280;39827;49.652;18.770;2023-02-13T14:20:40;98224.38;;;5.52;100.00
53916;BME280;39827;49.652;18.770;2023-02-13T14:25:36;98223.75;;;5.65;100.00
53916;BME280;39827;49.652;18.770;2023-02-13T14:28:03;98236.97;;;5.41;100.00
53916;BME280;39827;49.652;18.770;2023-02-13T14:30:32;98233.06;;;5.52;100.00
53916;BME280;39827;49.652;18.770;2023-02-13T14:33:23;98234.00;;;5.59;100.00
53916;BME280;39827;49.652;18.770;2023-02-13T14:36:07;98229.34;;;5.77;100.00
53916;BME280;39827;49.652;18.770;2023-02-13T14:38:42;98236.72;;;5.66;100.00
53916;BME280;39827;49.652;18.770;2023-02-13T14:41:41;98229.00;;;5.80;100.00
53916;BME280;39827;49.652;18.770;2023-02-13T14:44:18;98236.63;;;5.74;99.76
53916;BME280;39827;49.652;18.770;2023-02-13T14:46:46;98219.03;;;5.60;99.87
53916;BME280;39827;49.652;18.770;2023-02-13T14:51:52;98239.88;;;5.61;100.00
53916;BME280;39827;49.652;18.770;2023-02-13T14:54:32;98241.69;;;5.46;99.17
53916;BME280;39827;49.652;18.770;2023-02-13T14:57:20;98240.31;;;5.35;99.37
53916;BME280;39827;49.652;18.770;2023-02-13T14:59:50;98234.34;;;5.41;100.00
53916;BME280;39827;49.652;18.770;2023-02-13T15:02:29;98237.31;;;5.53;100.00
53916;BME280;39827;49.652;18.770;2023-02-13T15:05:15;98228.47;;;5.54;100.00
53916;BME280;39827;49.652;18.770;2023-02-13T15:10:37;98226.00;;;5.22;99.41
53916;BME280;39827;49.652;18.770;2023-02-13T15:13:14;98213.56;;;5.16;100.00
53916;BME280;39827;49.652;18.770;2023-02-13T15:15:40;98207.59;;;5.07;100.00
53916;BME280;39827;49.652;18.770;2023-02-13T15:18:38;98211.69;;;5.10;100.00
53916;BME280;39827;49.652;18.770;2023-02-13T15:21:05;98202.41;;;4.99;100.00
53916;BME280;39827;49.652;18.770;2023-02-13T15:23:32;98196.72;;;4.95;100.00
53916;BME280;39827;49.652;18.770;2023-02-13T15:26:04;98199.25;;;5.04;100.00
53916;BME280;39827;49.652;18.770;2023-02-13T15:28:31;98204.16;;;5.07;100.00
53916;BME280;39827;49.652;18.770;2023-02-13T15:31:22;98197.53;;;4.96;100.00
53916;BME280;39827;49.652;18.770;2023-02-13T15:33:49;98202.16;;;4.94;100.00
53916;BME280;39827;49.652;18.770;2023-02-13T15:36:20;98191.69;;;4.71;100.00